createdAt,value
2024-01-06T00:00:26.736Z,7.20
2024-01-06T00:02:54.310Z,7.10
2024-01-06T00:05:21.868Z,7.00
2024-01-06T00:07:49.411Z,7.00
2024-01-06T00:10:17.955Z,7.30
2024-01-06T00:12:44.667Z,7.20
2024-01-06T00:15:12.230Z,7.10
2024-01-06T00:17:39.909Z,7.00
2024-01-06T00:20:08.467Z,6.90
2024-01-06T00:22:35.814Z,7.00
2024-01-06T00:25:04.223Z,6.90
2024-01-06T00:27:31.819Z,6.90
2024-01-06T00:29:59.369Z,6.90
2024-01-06T00:32:26.915Z,6.90
2024-01-06T00:34:54.519Z,6.80
2024-01-06T00:37:22.059Z,6.80
2024-01-06T00:39:49.675Z,6.80
2024-01-06T00:42:17.208Z,6.80
2024-01-06T00:44:45.537Z,7.10
2024-01-06T00:47:13.124Z,7.20
2024-01-06T00:49:40.844Z,7.10
2024-01-06T00:52:08.255Z,7.10
2024-01-06T00:54:35.914Z,7.30
2024-01-06T00:57:03.437Z,7.20
2024-01-06T00:59:31.005Z,7.10
2024-01-06T01:01:58.599Z,7.10
2024-01-06T01:04:26.287Z,7.00
2024-01-06T01:06:53.779Z,7.00
2024-01-06T01:09:21.396Z,7.30
2024-01-06T01:11:48.919Z,7.50
2024-01-06T01:14:16.478Z,7.40
2024-01-06T01:16:44.097Z,7.30
2024-01-06T01:19:11.683Z,7.20
2024-01-06T01:21:39.264Z,7.10
2024-01-06T01:24:06.845Z,7.40
2024-01-06T01:26:35.112Z,7.50
2024-01-06T01:29:02.673Z,7.60
2024-01-06T01:31:30.340Z,7.40
2024-01-06T01:33:57.928Z,7.30
2024-01-06T01:36:25.409Z,7.20
2024-01-06T01:38:52.989Z,7.20
2024-01-06T01:41:20.545Z,7.20
2024-01-06T01:43:48.143Z,7.10
2024-01-06T01:46:15.774Z,7.10
2024-01-06T01:48:43.477Z,7.10
2024-01-06T01:51:11.692Z,7.10
2024-01-06T01:53:39.236Z,7.00
2024-01-06T01:56:06.790Z,7.10
2024-01-06T01:58:34.379Z,7.10
2024-01-06T02:01:02.849Z,7.10
2024-01-06T02:03:30.367Z,7.10
2024-01-06T02:05:58.640Z,7.10
2024-01-06T02:08:26.247Z,7.10
2024-01-06T02:10:53.787Z,7.10
2024-01-06T02:13:21.378Z,7.10
2024-01-06T02:15:49.016Z,7.10
2024-01-06T02:18:16.713Z,7.40
2024-01-06T02:20:44.116Z,7.40
2024-01-06T02:23:11.721Z,7.40
2024-01-06T02:25:39.279Z,7.30
2024-01-06T02:28:06.846Z,7.30
2024-01-06T02:30:34.598Z,7.30
2024-01-06T02:33:02.146Z,7.30
2024-01-06T02:35:30.400Z,7.20
2024-01-06T02:37:57.986Z,7.20
2024-01-06T02:40:25.530Z,7.20
2024-01-06T02:42:53.115Z,7.20
2024-01-06T02:45:20.736Z,7.20
2024-01-06T02:47:48.247Z,7.60
2024-01-06T02:50:16.570Z,7.40
2024-01-06T02:52:44.165Z,7.40
2024-01-06T02:55:11.733Z,7.40
2024-01-06T02:57:40.095Z,7.60
2024-01-06T03:00:07.914Z,7.50
2024-01-06T03:02:35.380Z,7.50
2024-01-06T03:05:03.018Z,7.30
2024-01-06T03:07:30.534Z,7.30
2024-01-06T03:09:58.101Z,7.30
2024-01-06T03:12:25.685Z,7.20
2024-01-06T03:14:53.255Z,7.10
2024-01-06T03:17:20.829Z,7.20
2024-01-06T03:19:48.444Z,7.10
2024-01-06T03:22:15.976Z,7.10
2024-01-06T03:24:43.601Z,7.20
2024-01-06T03:27:11.129Z,7.20
2024-01-06T03:29:38.692Z,7.20
2024-01-06T03:32:06.282Z,7.20
2024-01-06T03:34:34.020Z,7.20
2024-01-06T03:37:01.558Z,7.50
2024-01-06T03:39:29.123Z,7.50
2024-01-06T03:41:56.691Z,7.50
2024-01-06T03:44:24.246Z,7.40
2024-01-06T03:46:51.779Z,7.50
2024-01-06T03:49:19.388Z,7.40
2024-01-06T03:51:47.045Z,7.40
2024-01-06T03:54:14.535Z,7.40
2024-01-06T03:56:42.075Z,7.40
2024-01-06T03:59:10.424Z,7.40
2024-01-06T04:01:38.059Z,7.40
2024-01-06T04:04:05.853Z,7.40
2024-01-06T04:06:36.188Z,7.40
2024-01-06T04:09:03.721Z,7.40
2024-01-06T04:11:31.277Z,7.80
2024-01-06T04:13:58.871Z,7.70
2024-01-06T04:16:26.444Z,7.60
2024-01-06T04:18:54.915Z,7.60
2024-01-06T04:21:22.413Z,7.60
2024-01-06T04:23:50.717Z,7.50
2024-01-06T04:26:18.295Z,7.50
2024-01-06T04:28:45.870Z,7.50
2024-01-06T04:31:13.616Z,7.50
2024-01-06T04:33:41.227Z,7.50
2024-01-06T04:36:08.682Z,7.50
2024-01-06T04:38:36.176Z,7.50
2024-01-06T04:41:03.767Z,7.40
2024-01-06T04:43:31.375Z,7.40
2024-01-06T04:45:58.956Z,7.40
2024-01-06T04:48:27.483Z,7.40
2024-01-06T04:50:54.848Z,7.30
2024-01-06T04:53:23.163Z,7.30
2024-01-06T04:55:50.736Z,7.30
2024-01-06T04:58:18.321Z,7.30
2024-01-06T05:00:45.994Z,7.30
2024-01-06T05:03:13.552Z,7.30
2024-01-06T05:05:41.832Z,7.60
2024-01-06T05:08:09.419Z,7.60
2024-01-06T05:10:36.980Z,7.50
2024-01-06T05:13:04.546Z,7.80
2024-01-06T05:15:32.277Z,7.70
2024-01-06T05:17:59.841Z,7.60
2024-01-06T05:20:27.279Z,7.50
2024-01-06T05:22:54.837Z,7.50
2024-01-06T05:25:22.401Z,7.50
2024-01-06T05:27:50.077Z,7.40
2024-01-06T05:30:17.656Z,7.40
2024-01-06T05:32:45.205Z,7.40
2024-01-06T05:35:12.804Z,7.40
2024-01-06T05:37:40.297Z,7.40
2024-01-06T05:40:08.219Z,7.40
2024-01-06T05:42:36.602Z,7.70
2024-01-06T05:45:04.166Z,7.70
2024-01-06T05:47:32.497Z,7.50
2024-01-06T05:50:00.167Z,7.50
2024-01-06T05:52:28.434Z,7.50
2024-01-06T05:54:56.018Z,7.50
2024-01-06T05:57:23.749Z,7.50
2024-01-06T05:59:51.167Z,7.40
2024-01-06T06:02:18.751Z,7.40
2024-01-06T06:04:46.445Z,7.40
2024-01-06T06:07:13.923Z,7.40
2024-01-06T06:09:41.592Z,7.40
2024-01-06T06:12:09.054Z,7.70
2024-01-06T06:14:37.408Z,8.20
2024-01-06T06:17:04.956Z,8.20
2024-01-06T06:19:32.670Z,7.90
2024-01-06T06:22:00.883Z,7.60
2024-01-06T06:24:28.466Z,7.60
2024-01-06T06:26:56.021Z,7.50
2024-01-06T06:29:23.599Z,7.40
2024-01-06T06:31:51.226Z,7.40
2024-01-06T06:34:18.923Z,7.30
2024-01-06T06:36:46.324Z,7.30
2024-01-06T06:39:13.876Z,7.20
2024-01-06T06:41:41.429Z,7.20
2024-01-06T06:44:08.999Z,7.20
2024-01-06T06:46:36.563Z,7.10
2024-01-06T06:49:04.245Z,7.10
2024-01-06T06:51:31.827Z,7.10
2024-01-06T06:53:59.284Z,7.10
2024-01-06T06:56:26.886Z,7.10
2024-01-06T06:58:54.429Z,7.10
2024-01-06T07:01:22.079Z,7.10
2024-01-06T07:03:50.417Z,7.00
2024-01-06T07:06:17.963Z,7.00
2024-01-06T07:08:46.285Z,7.00
2024-01-06T07:11:13.862Z,7.00
2024-01-06T07:13:41.424Z,7.00
2024-01-06T07:16:17.808Z,7.00
2024-01-06T07:18:36.756Z,7.00
2024-01-06T07:21:10.228Z,7.60
2024-01-06T07:23:37.812Z,7.60
2024-01-06T07:26:05.387Z,7.50
2024-01-06T07:28:33.718Z,7.20
2024-01-06T07:31:01.493Z,7.20
2024-01-06T07:33:29.050Z,7.20
2024-01-06T07:35:56.503Z,7.10
2024-01-06T07:38:24.057Z,7.10
2024-01-06T07:40:51.616Z,7.10
2024-01-06T07:43:19.186Z,7.10
2024-01-06T07:45:46.787Z,7.10
2024-01-06T07:48:14.487Z,7.10
2024-01-06T07:50:41.941Z,7.10
2024-01-06T07:53:09.471Z,7.20
2024-01-06T07:55:37.841Z,7.20
2024-01-06T07:58:06.166Z,7.20
2024-01-06T08:00:33.769Z,7.20
2024-01-06T08:03:01.333Z,7.20
2024-01-06T08:05:28.941Z,7.20
2024-01-06T08:07:57.232Z,7.20
2024-01-06T08:10:24.841Z,7.20
2024-01-06T08:12:53.293Z,7.30
2024-01-06T08:15:20.736Z,7.30
2024-01-06T08:17:48.408Z,7.30
2024-01-06T08:20:15.890Z,7.30
2024-01-06T08:22:43.455Z,7.30
2024-01-06T08:25:11.059Z,7.40
2024-01-06T08:27:38.624Z,7.70
2024-01-06T08:30:06.425Z,7.60
2024-01-06T08:32:33.860Z,7.60
2024-01-06T08:35:01.411Z,7.50
2024-01-06T08:37:28.936Z,7.50
2024-01-06T08:39:56.614Z,7.40
2024-01-06T08:42:24.151Z,7.50
2024-01-06T08:44:51.700Z,7.50
2024-01-06T08:47:19.243Z,7.50
2024-01-06T08:49:46.948Z,7.50
2024-01-06T08:52:14.381Z,7.50
2024-01-06T08:54:42.009Z,7.80
2024-01-06T08:57:09.545Z,7.80
2024-01-06T08:59:37.113Z,7.70
2024-01-06T09:02:04.749Z,7.70
2024-01-06T09:04:32.422Z,7.70
2024-01-06T09:07:00.022Z,7.60
2024-01-06T09:09:27.464Z,8.00
2024-01-06T09:11:55.007Z,8.30
2024-01-06T09:14:22.589Z,8.10
2024-01-06T09:16:50.148Z,8.00
2024-01-06T09:19:17.888Z,7.90
2024-01-06T09:21:45.355Z,8.20
2024-01-06T09:24:13.002Z,8.20
2024-01-06T09:26:40.535Z,8.00
2024-01-06T09:29:08.085Z,8.00
2024-01-06T09:31:35.822Z,7.90
2024-01-06T09:34:03.380Z,7.80
2024-01-06T09:36:30.824Z,8.10
2024-01-06T09:38:59.169Z,7.90
2024-01-06T09:41:26.779Z,7.90
2024-01-06T09:43:55.072Z,7.80
2024-01-06T09:46:25.697Z,7.80
2024-01-06T09:48:53.337Z,7.80
2024-01-06T09:51:20.865Z,8.10
2024-01-06T09:53:51.099Z,8.00
2024-01-06T09:56:18.676Z,8.00
2024-01-06T09:58:46.280Z,8.00
2024-01-06T10:01:13.904Z,7.90
2024-01-06T10:03:41.442Z,7.90
2024-01-06T10:06:09.014Z,7.90
2024-01-06T10:08:36.559Z,7.90
2024-01-06T10:11:04.149Z,7.80
2024-01-06T10:13:31.734Z,8.10
2024-01-06T10:15:59.343Z,8.00
2024-01-06T10:18:27.058Z,7.90
2024-01-06T10:20:55.230Z,7.80
2024-01-06T10:23:25.320Z,7.80
2024-01-06T10:25:58.305Z,7.80
2024-01-06T10:28:23.511Z,7.80
2024-01-06T10:30:54.550Z,7.80
2024-01-06T10:33:22.063Z,7.80
2024-01-06T10:35:49.503Z,7.80
2024-01-06T10:38:17.100Z,7.80
2024-01-06T10:41:02.576Z,7.80
2024-01-06T10:43:30.192Z,7.80
2024-01-06T10:45:57.791Z,7.80
2024-01-06T10:48:28.370Z,7.80
2024-01-06T10:50:55.803Z,8.10
2024-01-06T10:53:26.222Z,8.40
2024-01-06T10:55:56.443Z,8.30
2024-01-06T10:58:22.129Z,8.10
2024-01-06T11:00:49.807Z,8.10
2024-01-06T11:03:17.303Z,8.10
2024-01-06T11:05:44.857Z,8.10
2024-01-06T11:08:12.465Z,8.00
2024-01-06T11:10:40.076Z,8.00
2024-01-06T11:13:11.291Z,8.00
2024-01-06T11:15:41.560Z,8.00
2024-01-06T11:18:09.165Z,8.00
2024-01-06T11:20:36.708Z,7.90
2024-01-06T11:23:19.591Z,7.90
2024-01-06T11:25:47.174Z,7.90
2024-01-06T11:28:14.766Z,7.90
2024-01-06T11:30:42.445Z,7.90
2024-01-06T11:33:10.017Z,7.90
2024-01-06T11:35:38.267Z,7.90
2024-01-06T11:38:05.836Z,7.90
2024-01-06T11:40:36.016Z,7.90
2024-01-06T11:43:15.410Z,8.30
2024-01-06T11:45:43.183Z,8.20
2024-01-06T11:48:10.738Z,8.20
2024-01-06T11:50:38.177Z,8.20
2024-01-06T11:53:05.787Z,8.10
2024-01-06T11:55:33.649Z,8.40
2024-01-06T11:58:03.794Z,8.30
2024-01-06T12:00:31.494Z,8.20
2024-01-06T12:02:58.884Z,8.00
2024-01-06T12:05:26.481Z,8.20
2024-01-06T12:07:59.781Z,8.10
2024-01-06T12:10:27.342Z,8.00
2024-01-06T12:12:57.972Z,7.90
2024-01-06T12:15:25.500Z,7.80
2024-01-06T12:17:53.060Z,7.80
2024-01-06T12:20:21.367Z,7.70
2024-01-06T12:22:48.972Z,7.70
2024-01-06T12:25:16.602Z,7.70
2024-01-06T12:27:44.198Z,7.60
2024-01-06T12:30:14.839Z,7.60
2024-01-06T12:32:42.405Z,7.50
2024-01-06T12:35:09.919Z,7.50
2024-01-06T12:37:42.196Z,7.40
2024-01-06T12:40:05.103Z,7.40
2024-01-06T12:42:33.420Z,7.50
2024-01-06T12:45:01.095Z,7.40
2024-01-06T12:47:28.767Z,7.40
2024-01-06T12:49:57.016Z,7.40
2024-01-06T12:52:24.641Z,7.40
2024-01-06T12:54:52.200Z,7.40
2024-01-06T12:57:20.525Z,7.30
2024-01-06T12:59:48.143Z,7.30
2024-01-06T13:02:15.681Z,7.30
2024-01-06T13:04:43.267Z,7.20
2024-01-06T13:07:10.847Z,7.10
2024-01-06T13:09:38.435Z,7.10
2024-01-06T13:12:06.005Z,7.00
2024-01-06T13:14:33.594Z,6.90
2024-01-06T13:17:01.138Z,6.90
2024-01-06T13:19:28.805Z,6.80
2024-01-06T13:21:56.388Z,6.80
2024-01-06T13:24:23.847Z,6.80
2024-01-06T13:26:52.157Z,6.80
2024-01-06T13:29:19.771Z,6.80
2024-01-06T13:31:48.304Z,7.20
2024-01-06T13:34:15.799Z,7.20
2024-01-06T13:36:43.325Z,7.20
2024-01-06T13:39:10.819Z,7.50
2024-01-06T13:41:38.399Z,7.40
2024-01-06T13:44:06.010Z,7.30
2024-01-06T13:46:33.575Z,7.20
2024-01-06T13:49:01.253Z,7.10
2024-01-06T13:51:28.780Z,7.10
2024-01-06T13:53:56.323Z,7.00
2024-01-06T13:56:24.719Z,7.00
2024-01-06T13:58:52.311Z,6.90
2024-01-06T14:01:20.736Z,7.20
2024-01-06T14:03:48.331Z,7.10
2024-01-06T14:06:15.900Z,7.10
2024-01-06T14:08:43.402Z,7.00
2024-01-06T14:11:10.971Z,6.90
2024-01-06T14:13:38.620Z,6.80
2024-01-06T14:16:06.267Z,6.80
2024-01-06T14:18:34.638Z,6.70
2024-01-06T14:21:02.097Z,6.70
2024-01-06T14:23:29.706Z,6.70
2024-01-06T14:25:57.244Z,6.70
2024-01-06T14:28:24.841Z,6.70
2024-01-06T14:30:52.495Z,6.70
2024-01-06T14:33:20.189Z,6.70
2024-01-06T14:35:47.597Z,6.80
2024-01-06T14:38:15.168Z,6.80
2024-01-06T14:40:42.728Z,6.90
2024-01-06T14:43:10.321Z,6.90
2024-01-06T14:45:37.921Z,6.90
2024-01-06T14:48:05.568Z,6.90
2024-01-06T14:50:33.840Z,7.20
2024-01-06T14:53:01.406Z,7.20
2024-01-06T14:55:29.782Z,7.20
2024-01-06T14:57:57.454Z,7.20
2024-01-06T15:00:24.973Z,7.00
2024-01-06T15:02:52.518Z,7.20
2024-01-06T15:05:20.320Z,7.10
2024-01-06T15:07:47.687Z,6.90
2024-01-06T15:10:15.342Z,6.80
2024-01-06T15:12:42.915Z,6.70
2024-01-06T15:15:10.454Z,6.60
2024-01-06T15:17:38.079Z,6.50
2024-01-06T15:20:05.626Z,6.80
2024-01-06T15:22:33.243Z,6.60
2024-01-06T15:25:00.900Z,6.90
2024-01-06T15:27:28.421Z,6.70
2024-01-06T15:29:55.943Z,6.60
2024-01-06T15:32:23.539Z,6.50
2024-01-06T15:34:51.900Z,6.30
2024-01-06T15:37:19.435Z,6.30
2024-01-06T15:39:48.314Z,6.20
2024-01-06T15:42:14.584Z,6.20
2024-01-06T15:44:42.168Z,6.40
2024-01-06T15:47:09.819Z,6.30
2024-01-06T15:49:37.499Z,6.20
2024-01-06T15:52:05.030Z,6.10
2024-01-06T15:54:32.651Z,6.10
2024-01-06T15:57:00.135Z,6.00
2024-01-06T15:59:28.456Z,6.20
2024-01-06T16:01:56.198Z,6.20
2024-01-06T16:04:23.849Z,6.20
2024-01-06T16:06:51.177Z,6.10
2024-01-06T16:09:18.778Z,6.00
2024-01-06T16:11:46.361Z,6.00
2024-01-06T16:14:13.991Z,6.30
2024-01-06T16:16:41.590Z,6.20
2024-01-06T16:19:09.261Z,6.10
2024-01-06T16:21:36.790Z,6.00
2024-01-06T16:24:04.346Z,6.00
2024-01-06T16:26:31.940Z,5.90
2024-01-06T16:28:59.523Z,5.90
2024-01-06T16:31:27.193Z,5.90
2024-01-06T16:33:55.037Z,5.90
2024-01-06T16:36:22.354Z,6.20
2024-01-06T16:38:49.875Z,6.10
2024-01-06T16:41:19.887Z,6.00
2024-01-06T16:43:47.464Z,6.20
2024-01-06T16:46:15.073Z,6.10
2024-01-06T16:48:43.464Z,6.10
2024-01-06T16:51:10.945Z,6.10
2024-01-06T16:53:38.507Z,5.90
2024-01-06T16:56:06.122Z,5.80
2024-01-06T16:58:33.700Z,5.70
2024-01-06T17:01:01.353Z,5.60
2024-01-06T17:03:28.957Z,5.60
2024-01-06T17:05:56.554Z,5.50
2024-01-06T17:08:23.997Z,5.50
2024-01-06T17:10:51.591Z,5.40
2024-01-06T17:13:19.166Z,5.80
2024-01-06T17:15:46.773Z,5.80
2024-01-06T17:18:14.373Z,5.70
2024-01-06T17:20:41.883Z,5.60
2024-01-06T17:23:10.205Z,5.50
2024-01-06T17:25:37.801Z,5.60
2024-01-06T17:28:05.403Z,5.50
2024-01-06T17:30:33.022Z,5.50
2024-01-06T17:33:01.327Z,5.40
2024-01-06T17:35:28.906Z,5.40
2024-01-06T17:37:56.479Z,5.40
2024-01-06T17:40:24.073Z,5.40
2024-01-06T17:42:51.720Z,5.40
2024-01-06T17:45:19.221Z,5.40
2024-01-06T17:47:46.898Z,5.40
2024-01-06T17:50:14.368Z,5.40
2024-01-06T17:52:41.972Z,5.40
2024-01-06T17:55:09.606Z,5.70
2024-01-06T17:57:37.976Z,5.60
2024-01-06T18:00:05.529Z,5.50
2024-01-06T18:02:36.250Z,5.50
2024-01-06T18:05:01.581Z,5.50
2024-01-06T18:07:29.099Z,5.50
2024-01-06T18:09:56.665Z,5.50
2024-01-06T18:12:24.264Z,5.50
2024-01-06T18:14:51.800Z,5.50
2024-01-06T18:17:20.240Z,5.50
2024-01-06T18:19:47.753Z,5.50
2024-01-06T18:22:15.309Z,5.50
2024-01-06T18:24:43.753Z,5.50
2024-01-06T18:27:11.260Z,5.50
2024-01-06T18:29:38.851Z,5.50
2024-01-06T18:32:06.430Z,5.40
2024-01-06T18:34:34.265Z,5.40
2024-01-06T18:37:01.687Z,5.40
2024-01-06T18:39:29.209Z,5.70
2024-01-06T18:41:56.718Z,5.60
2024-01-06T18:44:24.269Z,5.60
2024-01-06T18:46:51.864Z,5.50
2024-01-06T18:49:19.518Z,5.50
2024-01-06T18:51:47.022Z,5.40
2024-01-06T18:54:22.740Z,5.40
2024-01-06T18:56:42.202Z,5.40
2024-01-06T18:59:09.768Z,5.40
2024-01-06T19:01:37.488Z,5.40
2024-01-06T19:04:05.111Z,5.40
2024-01-06T19:06:32.666Z,5.40
2024-01-06T19:09:00.246Z,5.30
2024-01-06T19:11:27.809Z,5.70
2024-01-06T19:13:55.386Z,5.60
2024-01-06T19:16:22.999Z,5.80
2024-01-06T19:18:50.643Z,6.10
2024-01-06T19:21:18.167Z,5.90
2024-01-06T19:23:45.743Z,5.70
2024-01-06T19:26:14.072Z,5.80
2024-01-06T19:28:41.646Z,5.80
2024-01-06T19:31:09.259Z,5.70
2024-01-06T19:33:36.866Z,5.60
2024-01-06T19:36:04.397Z,5.60
2024-01-06T19:38:31.941Z,5.50
2024-01-06T19:40:59.507Z,5.40
2024-01-06T19:43:28.102Z,5.70
2024-01-06T19:45:57.539Z,5.60
2024-01-06T19:48:25.220Z,5.50
2024-01-06T19:50:53.365Z,5.30
2024-01-06T19:53:20.969Z,5.40
2024-01-06T19:55:49.307Z,5.30
2024-01-06T19:58:16.900Z,5.20
2024-01-06T20:00:45.337Z,5.50
2024-01-06T20:03:12.937Z,5.50
2024-01-06T20:05:40.474Z,5.40
2024-01-06T20:08:08.061Z,5.40
2024-01-06T20:10:35.629Z,5.30
2024-01-06T20:13:03.238Z,5.20
2024-01-06T20:15:30.851Z,5.20
2024-01-06T20:17:58.404Z,5.20
2024-01-06T20:20:25.930Z,5.20
2024-01-06T20:22:53.528Z,5.20
2024-01-06T20:25:21.155Z,5.20
2024-01-06T20:27:48.698Z,5.20
2024-01-06T20:30:16.283Z,5.20
2024-01-06T20:32:44.929Z,5.50
2024-01-06T20:35:12.249Z,5.50
2024-01-06T20:37:39.725Z,5.40
2024-01-06T20:40:07.392Z,5.40
2024-01-06T20:42:35.749Z,5.30
2024-01-06T20:45:03.339Z,5.30
2024-01-06T20:47:30.961Z,5.20
2024-01-06T20:49:58.493Z,5.20
2024-01-06T20:52:26.088Z,5.10
2024-01-06T20:54:53.665Z,5.10
2024-01-06T20:57:21.298Z,5.00
2024-01-06T20:59:48.854Z,5.00
2024-01-06T21:02:16.445Z,5.30
2024-01-06T21:04:43.978Z,5.20
2024-01-06T21:07:11.606Z,5.10
2024-01-06T21:09:39.189Z,5.00
2024-01-06T21:12:06.708Z,5.00
2024-01-06T21:14:34.294Z,4.90
2024-01-06T21:17:01.848Z,4.90
2024-01-06T21:19:29.844Z,4.90
2024-01-06T21:21:57.038Z,4.80
2024-01-06T21:24:24.558Z,4.80
2024-01-06T21:26:52.123Z,4.80
2024-01-06T21:29:19.717Z,5.10
2024-01-06T21:31:47.354Z,5.10
2024-01-06T21:34:14.971Z,5.00
2024-01-06T21:36:42.509Z,5.00
2024-01-06T21:39:10.816Z,5.00
2024-01-06T21:41:38.382Z,5.00
2024-01-06T21:44:05.970Z,4.90
2024-01-06T21:46:33.562Z,4.90
2024-01-06T21:49:01.939Z,5.00
2024-01-06T21:51:29.537Z,5.00
2024-01-06T21:53:57.038Z,5.00
2024-01-06T21:56:24.650Z,4.90
2024-01-06T21:58:52.251Z,4.90
2024-01-06T22:01:19.898Z,4.80
2024-01-06T22:03:48.212Z,4.80
2024-01-06T22:06:15.773Z,4.80
2024-01-06T22:08:44.134Z,4.80
2024-01-06T22:11:11.718Z,4.80
2024-01-06T22:13:39.280Z,4.80
2024-01-06T22:16:07.681Z,4.80
2024-01-06T22:18:35.323Z,4.80
2024-01-06T22:21:02.820Z,4.80
2024-01-06T22:23:30.366Z,4.80
2024-01-06T22:25:57.914Z,4.80
2024-01-06T22:28:25.525Z,4.80
2024-01-06T22:30:53.301Z,4.80
2024-01-06T22:33:20.751Z,4.70
2024-01-06T22:35:48.277Z,4.70
2024-01-06T22:38:15.860Z,5.00
2024-01-06T22:40:43.403Z,5.30
2024-01-06T22:43:11.165Z,5.20
2024-01-06T22:45:38.612Z,5.10
2024-01-06T22:48:07.043Z,4.90
2024-01-06T22:50:34.506Z,4.90
2024-01-06T22:53:02.069Z,4.90
2024-01-06T22:55:29.654Z,4.80
2024-01-06T22:57:58.150Z,4.70
2024-01-06T23:00:29.513Z,4.70
2024-01-06T23:02:56.877Z,4.70
2024-01-06T23:05:24.476Z,4.70
2024-01-06T23:07:52.055Z,4.70
2024-01-06T23:10:20.393Z,5.00
2024-01-06T23:12:48.045Z,5.00
2024-01-06T23:15:15.590Z,4.90
2024-01-06T23:17:43.200Z,4.80
2024-01-06T23:20:10.948Z,4.80
2024-01-06T23:22:38.476Z,4.80
2024-01-06T23:25:06.201Z,4.70
2024-01-06T23:27:33.676Z,4.70
2024-01-06T23:30:01.263Z,4.60
2024-01-06T23:32:28.932Z,4.60
2024-01-06T23:34:56.485Z,4.60
2024-01-06T23:37:24.053Z,4.50
2024-01-06T23:39:51.644Z,4.50
2024-01-06T23:42:19.194Z,4.80
2024-01-06T23:44:46.769Z,4.80
2024-01-06T23:47:14.331Z,4.70
2024-01-06T23:49:42.087Z,4.70
2024-01-06T23:52:09.572Z,5.00
2024-01-06T23:54:42.995Z,4.90
2024-01-06T23:57:10.558Z,4.90
2024-01-06T23:59:38.132Z,5.20
